Time;durP1;ratioP1;P1;durP2;ratioP2;P2;SDS_P1;SDS_P2;PMS_P1;PMS_P2;Temp;Humidity;BMP_temperature;BMP_pressure;BME280_temperature;BME280_humidity;BME280_pressure;Samples;Min_cycle;Max_cycle;Signal;HPM_P1;HPM_P2
2021/06/09 00:00:56;;;;;;;22.87;18.60;;;;;;;13.61;100.00;96700.69;5015196;28;20036;-74
2021/06/09 00:03:22;;;;;;;21.60;19.07;;;;;;;13.56;100.00;96692.44;4987401;28;20042;-77
2021/06/09 00:05:49;;;;;;;22.00;19.57;;;;;;;13.53;100.00;96696.25;5006569;28;20117;-76
2021/06/09 00:08:16;;;;;;;23.15;19.55;;;;;;;13.52;100.00;96699.06;4987839;28;20034;-76
2021/06/09 00:10:42;;;;;;;21.20;18.90;;;;;;;13.47;100.00;96694.25;5010021;28;20116;-77
2021/06/09 00:13:09;;;;;;;20.60;18.40;;;;;;;13.46;100.00;96694.44;5012556;28;20041;-76
2021/06/09 00:15:35;;;;;;;21.47;19.17;;;;;;;13.37;100.00;96702.34;5017260;28;20476;-77
2021/06/09 00:18:00;;;;;;;19.73;17.63;;;;;;;13.29;100.00;96702.38;5003618;28;20092;-77
2021/06/09 00:20:27;;;;;;;21.15;18.90;;;;;;;13.32;100.00;96696.75;4987942;28;20033;-77
2021/06/09 00:22:54;;;;;;;24.50;21.27;;;;;;;13.29;100.00;96691.78;5015649;28;20551;-75
2021/06/09 00:25:21;;;;;;;22.50;20.03;;;;;;;13.31;100.00;96699.53;5006947;28;20030;-77
2021/06/09 00:27:51;;;;;;;24.23;20.50;;;;;;;13.34;100.00;96688.66;5019310;28;20465;-77
2021/06/09 00:30:20;;;;;;;22.37;19.97;;;;;;;13.41;100.00;96695.78;4985495;28;20037;-77
2021/06/09 00:32:46;;;;;;;24.87;19.57;;;;;;;13.40;100.00;96699.38;5004511;28;20030;-77
2021/06/09 00:35:13;;;;;;;23.13;20.67;;;;;;;13.42;100.00;96700.06;4978471;28;20045;-77
2021/06/09 00:37:39;;;;;;;29.00;22.93;;;;;;;13.40;100.00;96701.19;5002360;28;20041;-77
2021/06/09 00:40:08;;;;;;;24.67;21.13;;;;;;;13.32;100.00;96695.94;5001296;28;20014;-77
2021/06/09 00:42:34;;;;;;;44.90;24.75;;;;;;;13.30;100.00;96697.91;4993394;28;20037;-77
2021/06/09 00:45:00;;;;;;;84.90;27.37;;;;;;;13.33;100.00;96697.56;4989960;28;20121;-77
2021/06/09 00:47:26;;;;;;;83.90;28.87;;;;;;;13.39;100.00;96694.28;4994268;28;20040;-77
2021/06/09 00:49:52;;;;;;;114.73;28.40;;;;;;;13.35;100.00;96696.44;5007367;28;20107;-77
2021/06/09 00:52:26;;;;;;;131.82;30.85;;;;;;;13.36;100.00;96703.34;5004384;28;20091;-77
2021/06/09 00:54:53;;;;;;;108.90;31.10;;;;;;;13.33;100.00;96698.41;5017436;28;20475;-77
2021/06/09 00:57:20;;;;;;;110.57;29.57;;;;;;;13.21;100.00;96699.66;5010095;28;20032;-76
2021/06/09 00:59:46;;;;;;;110.07;31.13;;;;;;;13.26;100.00;96694.75;5015631;28;20057;-76
2021/06/09 01:02:12;;;;;;;159.50;32.10;;;;;;;13.22;100.00;96690.78;5016359;28;20037;-77
2021/06/09 01:04:38;;;;;;;95.23;30.30;;;;;;;13.17;100.00;96688.59;5010092;28;20447;-77
2021/06/09 01:07:04;;;;;;;62.33;29.37;;;;;;;13.25;100.00;96689.66;5017023;28;20092;-77
2021/06/09 01:09:31;;;;;;;36.20;30.23;;;;;;;13.27;100.00;96691.13;5020702;28;20118;-76
2021/06/09 01:11:57;;;;;;;34.27;27.23;;;;;;;13.22;100.00;96701.34;5005683;28;20386;-76
2021/06/09 01:14:24;;;;;;;104.07;30.70;;;;;;;13.17;100.00;96693.06;5009378;28;20033;-74
2021/06/09 01:16:51;;;;;;;65.07;31.43;;;;;;;13.16;100.00;96691.44;5018030;28;20052;-77
2021/06/09 01:19:21;;;;;;;71.00;28.63;;;;;;;13.07;100.00;96689.75;5010101;28;20095;-77
2021/06/09 01:21:48;;;;;;;52.80;29.20;;;;;;;13.14;100.00;96688.94;5018976;28;20122;-77
2021/06/09 01:24:14;;;;;;;42.70;28.13;;;;;;;13.18;100.00;96692.91;4991014;28;20029;-76
2021/06/09 01:26:40;;;;;;;55.47;30.27;;;;;;;13.18;100.00;96690.28;5013454;28;20025;-73
2021/06/09 01:29:08;;;;;;;49.40;29.37;;;;;;;13.13;100.00;96691.75;5021541;28;20029;-77
2021/06/09 01:31:34;;;;;;;38.00;29.93;;;;;;;13.19;100.00;96696.38;5002528;28;20523;-76
2021/06/09 01:34:07;;;;;;;41.80;30.97;;;;;;;13.22;100.00;96690.78;5017360;28;20376;-77
2021/06/09 01:36:35;;;;;;;34.30;30.63;;;;;;;13.27;100.00;96699.06;5021272;28;20045;-78
2021/06/09 01:39:26;;;;;;;32.20;28.80;;;;;;;13.34;100.00;96699.22;4993338;28;20026;-77
2021/06/09 01:41:51;;;;;;;30.77;27.30;;;;;;;13.40;100.00;96694.09;4987991;28;20136;-77
2021/06/09 01:44:17;;;;;;;39.90;28.17;;;;;;;13.39;100.00;96691.63;5006737;28;20543;-77
2021/06/09 01:46:43;;;;;;;33.37;27.60;;;;;;;13.43;100.00;96700.88;5023110;28;20037;-77
2021/06/09 01:49:11;;;;;;;49.87;27.50;;;;;;;13.46;100.00;96691.81;5014748;28;20368;-77
2021/06/09 01:51:38;;;;;;;35.70;25.83;;;;;;;13.40;100.00;96694.09;4996937;28;20133;-77
2021/06/09 01:54:06;;;;;;;25.87;23.13;;;;;;;13.43;100.00;96690.31;5006394;28;20029;-77
2021/06/09 01:56:32;;;;;;;27.33;24.53;;;;;;;13.46;100.00;96697.09;5008390;28;20609;-77
2021/06/09 01:58:57;;;;;;;29.10;26.00;;;;;;;13.53;100.00;96698.06;5014130;28;20044;-77
2021/06/09 02:01:23;;;;;;;30.97;25.63;;;;;;;13.56;100.00;96695.09;5018836;28;20087;-77
2021/06/09 02:03:49;;;;;;;30.17;26.07;;;;;;;13.56;100.00;96693.28;5008453;28;20033;-77
2021/06/09 02:06:16;;;;;;;30.43;27.23;;;;;;;13.53;100.00;96685.69;4997828;28;20029;-77
2021/06/09 02:08:41;;;;;;;32.03;26.57;;;;;;;13.58;100.00;96687.81;5005135;28;20036;-74
2021/06/09 02:11:07;;;;;;;36.43;26.63;;;;;;;13.57;100.00;96679.06;5003450;28;20025;-77
2021/06/09 02:13:33;;;;;;;30.95;25.27;;;;;;;13.54;100.00;96687.31;5010383;28;20032;-77
2021/06/09 02:16:00;;;;;;;48.20;27.23;;;;;;;13.42;100.00;96684.19;5018715;28;20034;-77
2021/06/09 02:18:27;;;;;;;29.57;26.27;;;;;;;13.52;100.00;96689.31;5008530;28;20391;-77
2021/06/09 02:20:55;;;;;;;31.97;25.90;;;;;;;13.55;100.00;96682.88;5014009;28;20041;-76
2021/06/09 02:23:29;;;;;;;56.80;25.07;;;;;;;13.49;100.00;96687.00;5020789;28;20089;-76
2021/06/09 02:25:57;;;;;;;50.87;24.83;;;;;;;13.37;100.00;96686.50;5009352;28;20034;-76
2021/06/09 02:28:26;;;;;;;32.30;25.27;;;;;;;13.43;100.00;96690.31;4990763;28;20026;-78
2021/06/09 02:30:52;;;;;;;45.97;26.73;;;;;;;13.38;100.00;96684.69;4994439;28;20046;-77
2021/06/09 02:33:23;;;;;;;30.17;26.20;;;;;;;13.44;100.00;96689.31;5016449;28;20655;-76
2021/06/09 02:35:52;;;;;;;30.57;25.83;;;;;;;13.42;100.00;96689.50;5010785;28;20116;-77
2021/06/09 02:38:18;;;;;;;57.87;26.13;;;;;;;13.42;100.00;96686.84;5019347;28;20025;-77
2021/06/09 02:40:47;;;;;;;47.43;26.23;;;;;;;13.41;100.00;96682.56;4986628;28;20036;-75
2021/06/09 02:43:15;;;;;;;52.07;26.57;;;;;;;13.39;100.00;96681.88;5010454;28;20029;-77
2021/06/09 02:45:46;;;;;;;77.50;27.03;;;;;;;13.27;100.00;96680.56;4992601;28;20030;-77
2021/06/09 02:48:15;;;;;;;48.53;25.40;;;;;;;13.24;100.00;96680.88;4980760;28;20472;-77
2021/06/09 02:50:42;;;;;;;40.17;26.97;;;;;;;13.22;100.00;96685.50;5007235;28;20049;-77
2021/06/09 02:53:21;;;;;;;69.17;29.10;;;;;;;13.24;100.00;96686.16;5001586;28;20117;-77
2021/06/09 02:56:19;;;;;;;47.20;27.47;;;;;;;13.30;100.00;96682.88;5008123;28;20063;-77
2021/06/09 02:58:48;;;;;;;38.23;27.10;;;;;;;13.35;100.00;96685.84;5003788;28;20029;-76
2021/06/09 03:01:36;;;;;;;89.17;28.00;;;;;;;13.32;100.00;96688.00;5014883;28;20546;-76
2021/06/09 03:04:15;;;;;;;40.00;28.17;;;;;;;13.37;100.00;96683.84;5018004;28;20096;-77
2021/06/09 03:06:56;;;;;;;37.03;28.47;;;;;;;13.43;100.00;96693.78;4976586;28;20127;-74
2021/06/09 03:09:43;;;;;;;49.80;28.40;;;;;;;13.42;100.00;96686.84;5014322;28;20046;-78
2021/06/09 03:12:37;;;;;;;63.63;30.53;;;;;;;13.51;100.00;96692.09;5016260;28;20075;-78
2021/06/09 03:15:15;;;;;;;40.00;30.27;;;;;;;13.53;100.00;96692.78;5022300;28;20034;-78
2021/06/09 03:18:04;;;;;;;146.83;32.07;;;;;;;13.44;100.00;96692.78;5017587;28;20034;-77
2021/06/09 03:20:46;;;;;;;70.10;28.67;;;;;;;13.40;100.00;96682.72;5008176;28;20041;-77
2021/06/09 03:23:39;;;;;;;57.97;28.87;;;;;;;13.46;100.00;96686.50;4995961;28;20120;-78
2021/06/09 03:26:45;;;;;;;33.25;27.33;;;;;;;13.43;100.00;96683.19;5013997;28;20034;-77
2021/06/09 03:29:29;;;;;;;80.57;30.13;;;;;;;13.46;100.00;96676.75;4995654;28;20593;-77
2021/06/09 03:32:01;;;;;;;48.00;29.20;;;;;;;13.44;100.00;96682.19;4993536;28;20133;-77
2021/06/09 03:34:39;;;;;;;31.73;26.33;;;;;;;13.43;100.00;96677.91;5008870;28;20073;-78
2021/06/09 03:37:08;;;;;;;48.10;28.17;;;;;;;13.50;100.00;96678.06;5015665;28;20835;-77
2021/06/09 03:39:36;;;;;;;39.73;27.33;;;;;;;13.51;100.00;96673.63;5007740;28;20022;-77
2021/06/09 03:42:08;;;;;;;62.97;27.53;;;;;;;13.46;100.00;96678.59;5010408;28;20037;-74
2021/06/09 03:44:40;;;;;;;86.63;30.40;;;;;;;13.51;100.00;96679.72;5017750;28;20048;-77
2021/06/09 03:47:06;;;;;;;81.43;32.70;;;;;;;13.61;100.00;96674.25;5013293;28;20040;-77
2021/06/09 03:49:32;;;;;;;59.35;31.88;;;;;;;13.63;100.00;96678.41;4987426;28;20037;-77
2021/06/09 03:51:59;;;;;;;100.57;31.00;;;;;;;13.66;100.00;96677.25;5005904;28;20088;-78
2021/06/09 03:54:29;;;;;;;48.33;29.50;;;;;;;13.71;100.00;96684.66;5009974;28;20057;-77
2021/06/09 03:56:58;;;;;;;55.97;29.30;;;;;;;13.81;100.00;96678.19;4998798;28;20117;-77
2021/06/09 03:59:25;;;;;;;81.97;30.67;;;;;;;13.83;100.00;96678.03;5015779;28;20028;-77
2021/06/09 04:01:52;;;;;;;74.47;29.73;;;;;;;13.82;100.00;96671.94;5019248;28;20054;-77
2021/06/09 04:04:20;;;;;;;80.60;31.60;;;;;;;13.78;100.00;96678.56;4996613;28;20022;-76
2021/06/09 04:06:49;;;;;;;77.90;30.97;;;;;;;13.86;100.00;96675.06;5016115;28;20041;-77
2021/06/09 04:09:19;;;;;;;59.60;28.60;;;;;;;13.93;100.00;96678.66;5021134;28;20032;-77
2021/06/09 04:11:50;;;;;;;73.45;30.15;;;;;;;13.89;100.00;96677.38;5017124;28;20030;-78
2021/06/09 04:14:19;;;;;;;33.20;27.45;;;;;;;14.01;100.00;96676.00;5012409;28;20073;-77
2021/06/09 04:16:46;;;;;;;63.20;30.53;;;;;;;13.97;100.00;96673.88;5024730;28;20079;-77
2021/06/09 04:19:13;;;;;;;56.63;31.17;;;;;;;14.02;100.00;96674.19;5023933;28;20045;-77
2021/06/09 04:21:39;;;;;;;45.05;29.77;;;;;;;14.07;100.00;96677.16;5012169;28;20026;-76
2021/06/09 04:24:05;;;;;;;40.65;28.48;;;;;;;14.08;100.00;96671.69;5002081;28;20528;-76
2021/06/09 04:26:33;;;;;;;52.85;27.17;;;;;;;14.08;100.00;96679.63;5023342;28;20029;-76
2021/06/09 04:29:01;;;;;;;54.15;27.02;;;;;;;14.12;100.00;96673.00;5006523;28;20465;-77
2021/06/09 04:31:27;;;;;;;59.90;25.95;;;;;;;14.11;100.00;96675.81;4989052;28;20020;-77
2021/06/09 04:33:57;;;;;;;32.40;26.77;;;;;;;14.23;100.00;96679.75;5020654;28;20045;-78
2021/06/09 04:36:23;;;;;;;36.50;28.00;;;;;;;14.32;100.00;96668.13;4991024;28;20065;-77
2021/06/09 04:38:49;;;;;;;59.25;27.63;;;;;;;14.35;100.00;96674.88;5023687;28;20030;-78
2021/06/09 04:41:15;;;;;;;35.05;25.52;;;;;;;14.36;100.00;96674.72;4998339;28;20034;-79
2021/06/09 04:43:41;;;;;;;34.63;26.08;;;;;;;14.47;100.00;96675.34;5012107;28;20069;-78
2021/06/09 04:46:07;;;;;;;42.35;26.60;;;;;;;14.53;100.00;96680.81;5010507;28;20030;-76
2021/06/09 04:48:33;;;;;;;32.50;26.88;;;;;;;14.57;100.00;96675.97;5010948;28;20037;-77
2021/06/09 04:51:00;;;;;;;31.58;24.23;;;;;;;14.57;100.00;96681.28;5009391;28;20709;-77
2021/06/09 04:53:25;;;;;;;29.48;26.30;;;;;;;14.75;100.00;96681.81;4996862;28;20069;-77
2021/06/09 04:55:55;;;;;;;42.95;30.98;;;;;;;14.78;100.00;96678.00;5011014;28;20526;-76
2021/06/09 04:58:23;;;;;;;47.42;27.45;;;;;;;14.81;100.00;96678.50;5020650;28;20029;-77
2021/06/09 05:00:50;;;;;;;27.63;24.67;;;;;;;14.88;100.00;96677.78;5022821;28;20056;-77
2021/06/09 05:03:16;;;;;;;29.48;24.25;;;;;;;15.02;100.00;96684.97;5005910;28;20029;-77
2021/06/09 05:05:42;;;;;;;25.48;22.73;;;;;;;14.94;100.00;96682.41;5019541;28;20029;-78
2021/06/09 05:08:09;;;;;;;35.55;23.05;;;;;;;14.95;100.00;96684.03;5000254;28;20376;-77
2021/06/09 05:10:36;;;;;;;45.33;22.92;;;;;;;15.12;100.00;96687.41;5018002;28;20025;-76
2021/06/09 05:13:15;;;;;;;25.60;22.38;;;;;;;15.15;100.00;96685.22;5002879;28;20037;-77
2021/06/09 05:15:46;;;;;;;41.15;22.88;;;;;;;15.12;100.00;96680.28;5032657;28;20091;-77
2021/06/09 05:18:22;;;;;;;31.67;23.65;;;;;;;15.33;100.00;96682.28;5014720;28;20046;-77
2021/06/09 05:20:50;;;;;;;39.08;24.65;;;;;;;15.25;100.00;96682.34;4996475;28;20029;-77
2021/06/09 05:23:31;;;;;;;27.20;22.45;;;;;;;15.27;100.00;96677.69;5021301;28;20486;-77
2021/06/09 05:25:59;;;;;;;25.27;22.63;;;;;;;15.50;100.00;96677.69;5000817;28;20068;-75
2021/06/09 05:28:27;;;;;;;24.38;21.98;;;;;;;15.57;100.00;96683.91;5017677;28;20116;-77
2021/06/09 05:30:55;;;;;;;23.05;20.75;;;;;;;15.85;100.00;96684.16;5019865;28;20042;-76
2021/06/09 05:33:22;;;;;;;23.40;21.05;;;;;;;15.81;100.00;96682.06;5013308;28;20022;-77
2021/06/09 05:35:52;;;;;;;23.10;20.60;;;;;;;15.88;100.00;96682.97;5009424;28;20167;-77
2021/06/09 05:38:20;;;;;;;23.48;21.08;;;;;;;15.94;100.00;96679.59;5030189;28;20033;-78
2021/06/09 05:40:47;;;;;;;22.52;20.23;;;;;;;15.97;100.00;96684.53;4987288;28;20032;-78
2021/06/09 05:43:24;;;;;;;22.17;19.88;;;;;;;16.11;100.00;96683.72;5027060;28;20548;-76
2021/06/09 05:45:51;;;;;;;22.27;19.98;;;;;;;16.03;99.70;96678.53;5012666;28;20040;-76
2021/06/09 05:48:17;;;;;;;24.13;21.63;;;;;;;15.74;100.00;96674.81;5021533;28;20018;-77
2021/06/09 05:50:52;;;;;;;24.33;21.85;;;;;;;15.82;100.00;96681.03;5014916;28;20530;-76
2021/06/09 05:53:20;;;;;;;23.02;20.63;;;;;;;16.14;99.50;96675.41;5018728;28;20458;-77
2021/06/09 05:55:47;;;;;;;20.33;18.23;;;;;;;16.25;98.90;96687.38;4985599;28;20592;-77
2021/06/09 05:58:17;;;;;;;25.08;22.58;;;;;;;16.40;98.68;96695.34;4992000;28;20041;-80
2021/06/09 06:00:44;;;;;;;24.08;21.52;;;;;;;16.45;97.28;96692.94;5016309;28;20104;-77
2021/06/09 06:03:10;;;;;;;22.88;20.58;;;;;;;16.47;96.96;96696.25;5015737;28;20033;-76
2021/06/09 06:05:36;;;;;;;23.40;20.98;;;;;;;16.65;97.14;96695.84;5026195;28;20029;-76
2021/06/09 06:08:04;;;;;;;22.40;20.25;;;;;;;16.48;95.80;96693.41;5016847;28;20041;-76
2021/06/09 06:10:30;;;;;;;23.27;20.90;;;;;;;16.48;97.65;96700.56;5017328;28;20171;-76
2021/06/09 06:12:57;;;;;;;22.90;20.40;;;;;;;16.53;96.70;96689.38;5018697;28;20045;-76
2021/06/09 06:15:24;;;;;;;24.67;21.88;;;;;;;16.54;97.20;96691.84;5017122;28;20034;-77
2021/06/09 06:17:50;;;;;;;22.20;19.90;;;;;;;16.85;96.44;96696.13;5017676;28;20112;-76
2021/06/09 06:20:21;;;;;;;23.40;20.90;;;;;;;16.90;94.88;96685.75;5016670;28;20025;-79
2021/06/09 06:22:49;;;;;;;25.30;22.63;;;;;;;16.99;94.80;96695.25;5006118;28;20042;-76
2021/06/09 06:25:24;;;;;;;24.70;22.10;;;;;;;17.23;94.46;96682.59;5005089;28;20639;-77
2021/06/09 06:27:52;;;;;;;21.85;19.55;;;;;;;17.22;93.10;96680.97;5017515;28;20495;-78
2021/06/09 06:30:22;;;;;;;24.15;21.75;;;;;;;16.98;93.52;96698.94;5008441;28;20475;-77
2021/06/09 06:32:51;;;;;;;26.13;23.48;;;;;;;17.02;95.22;96688.75;5018685;28;20037;-77
2021/06/09 06:35:19;;;;;;;23.85;21.40;;;;;;;17.26;94.25;96690.19;5004797;28;20041;-76
2021/06/09 06:37:47;;;;;;;26.38;23.30;;;;;;;17.47;93.73;96690.22;5013928;28;20041;-77
2021/06/09 06:40:13;;;;;;;23.20;20.70;;;;;;;17.74;92.94;96693.06;4997663;28;20029;-77
2021/06/09 06:42:39;;;;;;;24.33;21.80;;;;;;;17.76;92.55;96691.91;5006821;28;20104;-77
2021/06/09 06:45:06;;;;;;;28.27;24.88;;;;;;;17.82;91.58;96685.81;5004832;28;20029;-77
2021/06/09 06:47:32;;;;;;;28.05;25.15;;;;;;;18.21;89.30;96683.59;5010913;28;20049;-77
2021/06/09 06:49:58;;;;;;;23.20;20.85;;;;;;;18.16;90.44;96680.72;5018066;28;20040;-76
2021/06/09 06:52:31;;;;;;;21.58;19.20;;;;;;;18.23;88.90;96685.03;5018349;28;20705;-77
2021/06/09 06:55:04;;;;;;;23.17;20.88;;;;;;;17.91;91.07;96694.47;5005448;28;20555;-77
2021/06/09 06:57:31;;;;;;;22.80;20.50;;;;;;;18.04;90.38;96683.94;5009568;28;20038;-78
2021/06/09 07:00:02;;;;;;;24.85;22.35;;;;;;;17.50;91.98;96689.81;5018344;28;20026;-77
2021/06/09 07:02:30;;;;;;;23.25;20.88;;;;;;;17.49;92.21;96685.50;5018682;28;20038;-77
2021/06/09 07:04:56;;;;;;;22.50;20.10;;;;;;;17.43;92.85;96686.28;5021967;28;20026;-77
2021/06/09 07:07:24;;;;;;;26.20;22.25;;;;;;;17.45;92.66;96692.22;5014938;28;20073;-77
2021/06/09 07:09:52;;;;;;;24.05;21.58;;;;;;;17.49;92.41;96695.31;5003963;28;20527;-78
2021/06/09 07:12:19;;;;;;;30.73;22.50;;;;;;;17.57;92.04;96688.06;5000142;28;20500;-78
2021/06/09 07:14:45;;;;;;;24.35;21.92;;;;;;;17.39;92.98;96698.31;5003873;28;20056;-78
2021/06/09 07:17:11;;;;;;;24.20;21.48;;;;;;;17.71;91.02;96694.28;5016848;28;20030;-78
2021/06/09 07:19:38;;;;;;;24.98;22.38;;;;;;;17.59;91.01;96701.13;5018503;28;20132;-78
2021/06/09 07:22:07;;;;;;;25.48;22.88;;;;;;;17.41;92.43;96704.25;4994106;28;20060;-78
2021/06/09 07:24:33;;;;;;;25.08;22.48;;;;;;;17.49;91.79;96698.00;5018995;28;20030;-77
2021/06/09 07:27:00;;;;;;;25.00;22.48;;;;;;;18.37;88.57;96700.06;4992097;28;20032;-78
2021/06/09 07:29:28;;;;;;;26.25;23.42;;;;;;;19.15;83.60;96696.28;5000716;28;20716;-78
2021/06/09 07:31:55;;;;;;;25.05;22.25;;;;;;;20.10;79.72;96694.31;5011900;28;20029;-77
2021/06/09 07:34:21;;;;;;;23.27;20.88;;;;;;;20.27;78.54;96692.84;5023574;28;20728;-78
2021/06/09 07:36:47;;;;;;;29.60;21.50;;;;;;;20.23;76.38;96697.78;5012418;28;20483;-77
2021/06/09 07:39:32;;;;;;;23.95;21.45;;;;;;;21.63;72.77;96694.50;5001061;28;20030;-77
2021/06/09 07:42:05;;;;;;;23.17;20.30;;;;;;;22.56;69.28;96690.94;5005524;28;20090;-77
2021/06/09 07:44:48;;;;;;;22.15;18.73;;;;;;;21.09;74.11;96698.50;5026481;28;20038;-78
2021/06/09 07:47:16;;;;;;;20.45;18.25;;;;;;;20.89;74.07;96698.59;5005472;28;20470;-77
2021/06/09 07:49:48;;;;;;;17.95;16.15;;;;;;;21.44;72.84;96701.63;5002969;28;20037;-78
2021/06/09 07:52:16;;;;;;;21.40;19.33;;;;;;;21.05;73.11;96702.66;5014958;28;20026;-77
2021/06/09 07:54:43;;;;;;;20.83;18.73;;;;;;;21.37;72.26;96701.69;5016098;28;20774;-78
2021/06/09 07:57:10;;;;;;;21.52;19.33;;;;;;;21.17;74.28;96706.31;5018405;28;20061;-78
2021/06/09 07:59:36;;;;;;;18.27;16.45;;;;;;;21.67;72.97;96705.59;5019489;28;20017;-78
2021/06/09 08:02:03;;;;;;;19.45;17.35;;;;;;;21.68;71.67;96702.69;5009861;28;20048;-78
2021/06/09 08:04:30;;;;;;;19.20;17.30;;;;;;;21.49;72.32;96699.13;4994548;28;20084;-79
2021/06/09 08:06:57;;;;;;;19.42;16.02;;;;;;;21.30;70.74;96706.22;5012969;28;20040;-79
2021/06/09 08:09:25;;;;;;;21.58;17.70;;;;;;;21.12;73.39;96704.25;5004625;28;20018;-78
2021/06/09 08:11:52;;;;;;;19.75;17.27;;;;;;;22.34;67.73;96698.63;4994453;28;20034;-77
2021/06/09 08:14:18;;;;;;;18.13;15.32;;;;;;;22.56;69.78;96701.69;4995012;28;20032;-78
2021/06/09 08:16:45;;;;;;;16.13;14.48;;;;;;;22.62;67.46;96703.47;5013024;28;20044;-78
2021/06/09 08:19:12;;;;;;;16.25;14.65;;;;;;;22.69;67.40;96704.22;5013018;28;20074;-78
2021/06/09 08:21:39;;;;;;;18.05;15.25;;;;;;;22.53;68.88;96704.81;4994951;28;20646;-78
2021/06/09 08:24:05;;;;;;;16.67;15.05;;;;;;;22.33;68.48;96705.00;5002672;28;20021;-78
2021/06/09 08:26:35;;;;;;;17.27;15.57;;;;;;;22.51;67.73;96712.25;4996827;28;20092;-79
2021/06/09 08:29:01;;;;;;;15.75;14.23;;;;;;;22.41;66.45;96709.28;5009411;28;20025;-78
2021/06/09 08:31:29;;;;;;;14.55;13.07;;;;;;;22.58;67.57;96707.66;5006423;28;20025;-77
2021/06/09 08:33:57;;;;;;;16.52;14.38;;;;;;;22.21;68.57;96722.88;5002593;28;20495;-77
2021/06/09 08:36:27;;;;;;;14.93;12.88;;;;;;;22.67;64.95;96722.41;5006723;28;20076;-78
2021/06/09 08:38:57;;;;;;;21.95;14.82;;;;;;;22.66;66.61;96726.09;4973971;28;20487;-76
2021/06/09 08:41:32;;;;;;;19.98;12.82;;;;;;;22.47;65.40;96719.94;5023161;28;20038;-77
2021/06/09 08:44:07;;;;;;;14.13;12.10;;;;;;;22.28;63.73;96720.94;5003667;28;20057;-77
2021/06/09 08:46:36;;;;;;;14.50;11.88;;;;;;;22.09;62.89;96730.78;5008899;28;20649;-77
2021/06/09 08:49:04;;;;;;;11.70;10.15;;;;;;;21.63;63.28;96737.34;5023621;28;20021;-75
2021/06/09 08:51:32;;;;;;;10.60;9.50;;;;;;;21.67;60.05;96733.19;5018935;28;20026;-78
2021/06/09 08:54:00;;;;;;;10.77;9.68;;;;;;;21.79;61.32;96725.25;5021404;28;20438;-78
2021/06/09 08:56:25;;;;;;;10.48;9.40;;;;;;;22.23;60.91;96737.69;5027974;28;20030;-78
2021/06/09 08:58:52;;;;;;;12.35;11.00;;;;;;;21.91;62.50;96734.22;5026318;28;20040;-76
2021/06/09 09:01:19;;;;;;;13.57;11.23;;;;;;;21.12;63.46;96735.53;5018011;28;20112;-78
2021/06/09 09:03:48;;;;;;;12.13;10.32;;;;;;;20.89;63.60;96747.56;5022089;28;20102;-79
2021/06/09 09:06:14;;;;;;;13.02;10.18;;;;;;;21.48;62.34;96736.81;4991933;28;20037;-79
2021/06/09 09:08:40;;;;;;;11.80;9.48;;;;;;;21.96;61.39;96746.94;5010141;28;20029;-78
2021/06/09 09:11:09;;;;;;;11.48;10.20;;;;;;;22.18;62.23;96750.91;5014303;28;20402;-79
2021/06/09 09:13:35;;;;;;;14.77;10.60;;;;;;;21.85;62.26;96740.44;5010897;28;20021;-78
2021/06/09 09:16:01;;;;;;;10.95;9.80;;;;;;;22.22;62.76;96751.28;5024646;28;20026;-78
2021/06/09 09:18:55;;;;;;;12.23;10.82;;;;;;;21.39;64.73;96758.47;5016224;28;20577;-76
2021/06/09 09:21:42;;;;;;;10.80;9.10;;;;;;;21.47;64.03;96749.38;4999924;28;20038;-77
2021/06/09 09:24:10;;;;;;;14.05;12.05;;;;;;;22.11;63.38;96755.50;5005571;28;20076;-78
2021/06/09 09:26:38;;;;;;;15.70;12.63;;;;;;;22.38;62.19;96748.06;5001026;28;20378;-79
2021/06/09 09:29:22;;;;;;;14.73;9.15;;;;;;;22.61;60.04;96744.72;5016771;28;20041;-79
2021/06/09 09:32:07;;;;;;;10.57;8.82;;;;;;;23.34;58.77;96745.72;5014505;28;20100;-79
2021/06/09 09:34:43;;;;;;;9.25;8.25;;;;;;;23.55;56.82;96739.84;5007690;28;20037;-77
2021/06/09 09:37:12;;;;;;;15.15;8.20;;;;;;;24.93;53.70;96738.53;5024249;28;20037;-79
2021/06/09 09:39:39;;;;;;;10.25;8.93;;;;;;;23.67;56.45;96743.38;5014798;28;20033;-78
2021/06/09 09:42:36;;;;;;;10.85;8.48;;;;;;;24.28;54.75;96740.56;5011477;28;20087;-79
2021/06/09 09:45:27;;;;;;;16.65;8.32;;;;;;;23.85;56.77;96739.84;5021412;28;20044;-79
2021/06/09 09:48:15;;;;;;;9.55;7.40;;;;;;;24.33;55.74;96746.06;5005134;28;20706;-79
2021/06/09 09:50:46;;;;;;;11.88;8.20;;;;;;;24.43;54.95;96738.25;5024478;28;20037;-79
2021/06/09 09:53:30;;;;;;;9.57;7.55;;;;;;;23.93;56.02;96741.38;5021752;28;20690;-79
2021/06/09 09:56:00;;;;;;;9.35;6.97;;;;;;;24.25;55.47;96735.69;5011653;28;21341;-79
2021/06/09 09:58:27;;;;;;;8.13;7.07;;;;;;;24.07;54.45;96742.78;5012955;28;20128;-79
2021/06/09 10:01:07;;;;;;;9.55;6.68;;;;;;;23.65;55.56;96745.50;5022346;28;20028;-79
2021/06/09 10:03:36;;;;;;;12.50;8.40;;;;;;;23.30;56.71;96745.34;5000106;28;20053;-79
2021/06/09 10:06:26;;;;;;;8.23;7.35;;;;;;;24.45;55.87;96738.88;4990667;28;20030;-78
2021/06/09 10:08:54;;;;;;;10.52;8.63;;;;;;;24.63;56.33;96736.03;5008921;28;20034;-77
2021/06/09 10:11:21;;;;;;;8.95;7.28;;;;;;;26.38;49.74;96731.94;4991994;28;20022;-78
2021/06/09 10:13:47;;;;;;;9.63;8.27;;;;;;;27.47;49.10;96723.91;5032822;28;20054;-78
2021/06/09 10:16:22;;;;;;;14.88;13.13;;;;;;;26.50;50.91;96730.00;5014367;28;20049;-80
2021/06/09 10:19:00;;;;;;;8.60;7.70;;;;;;;25.88;50.84;96730.91;4996353;28;20076;-80
2021/06/09 10:21:26;;;;;;;8.45;7.57;;;;;;;24.22;56.21;96724.34;5027189;28;20034;-79
2021/06/09 10:23:58;;;;;;;7.55;5.10;;;;;;;25.58;53.37;96734.66;5006880;28;20025;-79
2021/06/09 10:26:24;;;;;;;6.53;4.80;;;;;;;26.84;45.65;96725.34;5021302;28;20048;-80
2021/06/09 10:29:04;;;;;;;6.90;5.18;;;;;;;26.98;45.29;96726.56;5018828;28;20033;-80
2021/06/09 10:31:42;;;;;;;5.30;3.92;;;;;;;26.06;47.97;96722.59;5009599;28;20044;-78
2021/06/09 10:34:15;;;;;;;5.70;3.75;;;;;;;27.67;44.06;96712.50;5006264;28;20036;-79
2021/06/09 10:36:47;;;;;;;7.40;4.00;;;;;;;27.42;42.18;96714.94;5010553;28;20034;-78
2021/06/09 10:39:15;;;;;;;7.93;3.40;;;;;;;27.62;42.55;96720.53;5008991;28;20065;-79
2021/06/09 10:41:45;;;;;;;7.50;5.05;;;;;;;26.43;46.56;96726.66;5014959;28;20034;-78
2021/06/09 10:44:13;;;;;;;7.38;5.82;;;;;;;24.96;49.50;96729.19;5010393;28;20488;-81
2021/06/09 10:46:42;;;;;;;8.35;4.85;;;;;;;26.77;45.44;96719.31;4990475;28;20104;-80
2021/06/09 10:49:12;;;;;;;8.18;6.97;;;;;;;25.84;50.04;96730.59;4994346;28;20030;-78
2021/06/09 10:51:38;;;;;;;8.43;7.47;;;;;;;27.71;46.82;96715.50;5015311;28;20044;-79
2021/06/09 10:54:10;;;;;;;8.23;7.40;;;;;;;27.74;47.24;96704.19;4997208;28;20027;-80
2021/06/09 10:56:38;;;;;;;8.52;7.00;;;;;;;27.27;47.25;96710.22;5020100;28;20034;-79
2021/06/09 10:59:04;;;;;;;7.13;5.53;;;;;;;25.38;47.45;96720.84;4994110;28;20030;-78
2021/06/09 11:01:30;;;;;;;6.63;5.20;;;;;;;24.85;50.74;96711.22;5015443;28;20092;-78
2021/06/09 11:04:00;;;;;;;6.35;4.85;;;;;;;25.73;46.54;96711.78;4995259;28;20479;-79
2021/06/09 11:06:40;;;;;;;6.90;4.72;;;;;;;26.76;43.92;96704.16;5001732;28;20518;-79
2021/06/09 11:09:28;;;;;;;7.47;4.00;;;;;;;26.41;46.13;96708.00;5005490;28;20030;-78
2021/06/09 11:12:12;;;;;;;5.55;4.00;;;;;;;27.47;42.96;96702.31;4984922;28;20087;-79
2021/06/09 11:15:15;;;;;;;6.18;4.45;;;;;;;26.53;46.21;96700.66;5020020;28;20112;-79
2021/06/09 11:17:46;;;;;;;;;;;;;;;26.26;48.90;96703.22;4920783;29;20463;-78
2021/06/09 11:20:17;;;;;;;6.22;4.95;;;;;;;26.72;46.17;96697.66;4974266;28;20367;-79
2021/06/09 11:23:11;;;;;;;7.40;4.87;;;;;;;27.68;44.84;96697.09;4992980;28;20201;-78
2021/06/09 11:25:47;;;;;;;7.78;6.18;;;;;;;28.15;43.96;96691.00;4985839;28;20540;-78
2021/06/09 11:28:32;;;;;;;6.57;4.97;;;;;;;27.67;42.31;96696.28;4976033;28;20030;-79
2021/06/09 11:31:09;;;;;;;5.05;4.00;;;;;;;29.04;40.15;96686.63;4996537;28;20037;-79